Albury
Weather
Information

and Archive.
Albury Local Internet Skycam This service provided and funded by Albury Local Internet

Help keep our weatherstation running:

Lavington Weatherstation live data - Conditions of Use

Last updated on 20-Aug-2019 at 23:43:01
Temperature
  Currently 10.0 degrees C
  Apparent Temperature ("Wind Chill") is 5.3 degrees C
  Today has ranged from  4.7 at 04:47 to 10.1 at 16:22
  Yesterday ranged from  3.7 at 06:16 to  9.7 at 14:53
Wind
  Now:   22.3kmh, gusting to  29.9kmh from 226 degrees ( SW)
  Hour:  17.0kmh, gusting to  33.8kmh
Rainfall
   0.2mm Midnight to Midnight (ie, yesterday)
   0.2mm Since Midnight (ie, so far today)
   0.0mm 9am yesterday to 9am today
  30.2mm Total this month
Misc items
  Relative humidity is 89%
  Dewpoint is 8.3 deg C
  Estimated Cloudbase is 700 feet
  Barometric Pressure is 1022.0 mbar
  Solar Insolation: 0 W/m^2
  UV Index: 0.0 (Low)
Top Solar flares in the last 24 hours

Last 24 hours Temperature Graph (click graph for history)
temperature

Last 24 hours Dynamic Wind display (click image for 4-hour image):
Wind Rose

Current Yarrawonga Weather Radar and Infrared Satellite Images from the BOM.

Hourly summaries in the tables below are cumulative and peak values
for the preceding hour, and instantaneous values at the hour.
So far today, 20-Aug-2019
Time   Barom.  Wind + Gust    Direction   RH   Rain    Temp.  Minimum    Maximum
01:00  1026.0   9.8  19.4kmh  247 (WSW)   83%  0.0mm    6.0   5.5@00:35  6.3@00:00
02:00  1026.0  10.6  19.4kmh  278 ( W )   81%  0.0mm    6.5   6.0@01:00  6.6@01:55
03:00  1026.0   8.0  14.0kmh  237 (WSW)   87%  0.0mm    5.7   5.4@02:48  6.5@02:00
04:00  1026.0   9.9  16.9kmh  239 (WSW)   32%  0.0mm    5.0   5.1@03:58  5.9@03:06
05:00  1026.0   8.4  15.5kmh  251 (WSW)   92%  0.0mm    4.7   4.7@04:47  5.1@04:01
06:00  1026.0   7.7  14.0kmh  300 (WNW)    0%  0.0mm    4.7   4.7@05:00  5.1@05:23
07:00  1026.0   5.3  10.1kmh  295 (WNW)   92%  0.0mm    5.0   4.7@06:00  5.0@06:54
08:00  1027.0   9.2  18.7kmh  276 ( W )   93%  0.0mm    5.1   4.8@07:19  5.1@07:28
09:00  1027.0  10.0  18.0kmh  298 (WNW)   92%  0.0mm    5.8   5.1@08:00  5.9@08:54
10:00  1027.0   9.0  16.2kmh  263 ( W )   92%  0.0mm    5.9   5.7@09:02  6.1@09:10
11:00  1027.0   8.4  14.8kmh  282 (WNW)   90%  0.0mm    6.8   5.9@10:00  6.9@10:56
12:00  1027.0   8.2  16.9kmh  268 ( W )   82%  0.0mm    8.4   6.7@11:03  8.6@11:57
13:00  1026.0  11.5  23.0kmh  298 (WNW)   77%  0.0mm    9.1   8.4@12:00  9.7@12:12
14:00  1026.0  11.6  21.6kmh  294 (WNW)   77%  0.0mm    9.1   8.7@13:38  9.6@13:51
15:00  1025.0   8.9  15.5kmh  280 ( W )   82%  0.0mm    8.8   8.6@14:51  9.4@14:02
16:00  1025.0   7.9  17.6kmh  283 (WNW)   78%  0.0mm    9.6   8.7@15:03  9.7@15:57
17:00  1025.0   8.2  17.6kmh  196 (SSW)   77%  0.0mm    9.6   9.6@16:00 10.1@16:22
18:00  1025.0   9.1  17.6kmh  297 (WNW)   89%  0.0mm    8.7   8.7@17:53  9.6@17:00
19:00  1024.0  13.2  22.3kmh  283 (WNW)   94%  0.0mm    8.4   8.4@18:59  9.0@18:23
20:00  1024.0  14.4  23.0kmh  289 (WNW)   94%  0.2mm    8.8   8.3@19:06  8.8@19:58
21:00  1023.0  13.7  23.0kmh  272 ( W )   91%  0.0mm    9.5   8.7@20:01  9.5@20:59
22:00  1023.0  14.8  30.6kmh  287 (WNW)   90%  0.0mm    9.6   9.4@21:05  9.6@21:01
23:00  1022.0  16.2  28.4kmh  276 ( W )   93%  0.0mm    9.5   9.6@22:00 10.0@22:17
23:43  1022.0  17.0  33.8kmh  253 (WSW)   89%  0.0mm   10.0   9.4@23:07 10.0@23:37


Summary for yesterday, 19-Aug-2019
Time   Barom.  Wind + Gust    Direction   RH   Rain    Temp.  Minimum    Maximum
01:00  1013.0  14.9  27.7kmh  256 (WSW)   90%  0.0mm    5.2   5.2@00:13  5.6@00:00
02:00  1014.0  13.4  25.6kmh  247 (WSW)   91%  0.0mm    5.0   5.0@01:59  5.2@01:00
03:00  1014.0  11.9  29.2kmh  245 (WSW)   93%  0.0mm    4.8   4.8@02:23  5.0@02:00
04:00  1014.0  13.0  24.8kmh  189 ( S )   94%  0.0mm    4.4   4.4@03:39  4.9@03:03
05:00  1014.0  11.3  21.6kmh  212 (SSW)   94%  0.0mm    4.2   4.2@04:49  4.4@04:00
06:00  1015.0  11.8  23.0kmh  257 (WSW)   96%  0.2mm    3.8   3.8@05:52  4.2@05:00
07:00  1016.0  11.9  26.3kmh  283 (WNW)   96%  0.0mm    3.7   3.7@06:16  3.9@06:45
08:00  1017.0  14.7  25.6kmh  244 (WSW)    0%  0.0mm    4.0   3.7@07:00  4.0@07:38
09:00  1018.0  14.3  29.2kmh  202 (SSW)   92%  0.0mm    4.4   4.0@08:00  4.4@08:59
10:00  1019.0  14.4  26.3kmh  229 ( SW)   81%  0.0mm    5.8   4.4@09:00  5.9@09:52
11:00  1020.0  13.4  24.8kmh  197 (SSW)   75%  0.0mm    6.8   5.8@10:00  7.8@10:51
12:00  1020.0  14.8  36.0kmh  247 (WSW)   67%  0.0mm    8.4   6.5@11:02  8.1@11:59
13:00  1021.0  15.7  27.7kmh  185 ( S )   64%  0.0mm    8.4   7.2@12:32  8.7@12:40
14:00  1021.0  14.6  27.0kmh  249 (WSW)   58%  0.0mm    8.7   7.6@13:26  9.2@13:54
15:00  1021.0  15.3  29.2kmh  194 (SSW)   57%  0.0mm    9.2   8.5@14:01  9.7@14:53
16:00  1022.0  14.7  29.2kmh  247 (WSW)   58%  0.0mm    9.0   8.6@15:29  9.5@15:09
17:00  1022.0  12.9  23.0kmh  250 (WSW)   62%  0.0mm    8.7   8.3@16:25  9.4@16:14
18:00  1023.0  12.1  22.3kmh  276 ( W )   76%  0.0mm    7.0   7.0@17:55  8.8@17:01
19:00  1024.0  10.8  27.0kmh  277 ( W )   71%  0.0mm    7.4   6.9@18:01  7.4@18:49
20:00  1025.0  11.5  23.0kmh  246 (WSW)   73%  0.0mm    7.1   7.1@19:51  7.5@19:14
21:00  1025.0  10.6  21.6kmh  227 ( SW)   74%  0.0mm    7.2   6.9@20:07  7.2@20:15
22:00  1025.0  12.4  21.6kmh  239 (WSW)   76%  0.0mm    6.7   6.6@21:24  7.2@21:00
23:00  1026.0  11.9  22.3kmh  237 (WSW)   77%  0.0mm    6.7   6.4@22:34  6.8@22:04
00:00  1026.0  10.4  17.6kmh  232 ( SW)   80%  0.0mm    6.3   6.3@23:58  6.7@23:00